Marshalltown, Iowa
Current Conditions -  °F | °C
As of 8:53 PM on Wednesday 26 Nov 2014 (Local Time) from KMIW Reporting Station
Light Snow Light Snow  
Wind Chill: 14°   Ceiling: 4200
Heat Index: 26°   Visibility: 3mi
Dew Point: 23°   Wind: 14mph
Humidity: 88%   Direction: 330°NNW
Pressure: 30.27"   Gusts: NA
Location:  42.05°N, 92.91°W
Report Text: KMIW 270253Z AUTO 33012KT 3SM -SN BR FEW011 BKN042 OVC060 M03/M05 A3027 RMK AO2 SNB44 SLP264 P0000 60000 T10331050 53027
Loading
Personal Weather Stations






























Interactive Weather Map New forecast layout! Learn more

10-Day Weather Forecast

Advertisements
Track Severe Weather on mobile